Time;durP1;ratioP1;P1;durP2;ratioP2;P2;SDS_P1;SDS_P2;PMS_P1;PMS_P2;Temp;Humidity;BMP_temperature;BMP_pressure;BME280_temperature;BME280_humidity;BME280_pressure;Samples;Min_cycle;Max_cycle;Signal;HPM_P1;HPM_P2
2023/12/22 00:00:19;;;;;;;55.67;2.20;;;;;;;;;;5044152;28;20452;-71
2023/12/22 00:02:47;;;;;;;55.47;2.20;;;;;;;;;;5031371;28;20468;-71
2023/12/22 00:05:14;;;;;;;55.70;2.47;;;;;;;;;;5031650;28;20451;-71
2023/12/22 00:07:41;;;;;;;55.17;2.13;;;;;;;;;;5046560;28;20527;-71
2023/12/22 00:10:09;;;;;;;55.77;2.37;;;;;;;;;;5031082;28;20813;-71
2023/12/22 00:12:38;;;;;;;55.90;2.27;;;;;;;;;;5031105;28;20479;-71
2023/12/22 00:15:06;;;;;;;55.87;2.70;;;;;;;;;;5031529;28;20949;-71
2023/12/22 00:17:34;;;;;;;55.53;2.23;;;;;;;;;;5032051;28;20455;-71
2023/12/22 00:20:02;;;;;;;55.80;2.40;;;;;;;;;;5031981;28;20442;-71
2023/12/22 00:22:30;;;;;;;55.73;2.63;;;;;;;;;;5031175;28;20503;-71
2023/12/22 00:24:57;;;;;;;55.50;2.30;;;;;;;;;;5032045;28;20515;-71
2023/12/22 00:27:24;;;;;;;55.70;2.20;;;;;;;;;;5032239;28;20458;-71
2023/12/22 00:29:51;;;;;;;55.47;2.10;;;;;;;;;;5031414;28;20462;-71
2023/12/22 00:32:19;;;;;;;55.67;2.30;;;;;;;;;;5030887;28;20477;-71
2023/12/22 00:34:46;;;;;;;55.67;2.30;;;;;;;;;;5031076;28;20462;-71
2023/12/22 00:37:14;;;;;;;55.70;2.30;;;;;;;;;;5031288;28;20551;-70
2023/12/22 00:39:41;;;;;;;55.67;2.20;;;;;;;;;;5031122;28;20828;-70
2023/12/22 00:42:08;;;;;;;55.57;2.40;;;;;;;;;;5031015;28;20466;-70
2023/12/22 00:44:35;;;;;;;55.47;2.40;;;;;;;;;;5030926;28;20456;-71
2023/12/22 00:47:02;;;;;;;56.00;2.50;;;;;;;;;;5030909;28;20450;-70
2023/12/22 00:49:30;;;;;;;55.50;2.20;;;;;;;;;;5030835;28;20974;-71
2023/12/22 00:51:57;;;;;;;55.87;2.43;;;;;;;;;;5030966;28;20499;-71
2023/12/22 00:54:25;;;;;;;55.80;2.47;;;;;;;;;;5030881;28;20459;-71
2023/12/22 00:56:52;;;;;;;55.60;2.03;;;;;;;;;;5030752;28;20502;-71
2023/12/22 00:59:19;;;;;;;55.57;2.27;;;;;;;;;;5030924;28;20455;-71
2023/12/22 01:01:46;;;;;;;55.80;2.30;;;;;;;;;;5030414;28;20464;-71
2023/12/22 01:04:14;;;;;;;55.53;2.27;;;;;;;;;;5030743;28;20821;-71
2023/12/22 01:06:43;;;;;;;55.77;2.60;;;;;;;;;;5030892;28;20809;-71
2023/12/22 01:09:10;;;;;;;55.77;2.67;;;;;;;;;;5031067;28;20459;-71
2023/12/22 01:11:37;;;;;;;55.80;2.50;;;;;;;;;;5030492;28;20498;-71
2023/12/22 01:14:04;;;;;;;55.80;2.73;;;;;;;;;;5030608;28;20459;-71
2023/12/22 01:16:31;;;;;;;55.87;2.27;;;;;;;;;;5030523;28;20456;-71
2023/12/22 01:18:58;;;;;;;55.43;2.20;;;;;;;;;;5030861;28;20446;-71
2023/12/22 01:21:25;;;;;;;55.97;2.60;;;;;;;;;;5030709;28;20454;-71
2023/12/22 01:23:54;;;;;;;55.90;2.40;;;;;;;;;;5034359;28;20453;-71
2023/12/22 01:26:21;;;;;;;55.80;2.30;;;;;;;;;;5034638;28;20474;-71
2023/12/22 01:28:48;;;;;;;55.73;2.50;;;;;;;;;;5034281;28;20459;-71
2023/12/22 01:31:15;;;;;;;55.57;2.30;;;;;;;;;;5034112;28;20577;-71
2023/12/22 01:33:42;;;;;;;55.67;2.17;;;;;;;;;;5034267;28;20455;-71
2023/12/22 01:36:09;;;;;;;55.67;2.60;;;;;;;;;;5034646;28;20458;-71
2023/12/22 01:38:36;;;;;;;55.80;2.50;;;;;;;;;;5034321;28;20458;-71
2023/12/22 01:41:05;;;;;;;56.00;2.80;;;;;;;;;;5042559;28;20451;-71
2023/12/22 01:43:32;;;;;;;55.77;2.70;;;;;;;;;;5042011;28;20470;-72
2023/12/22 01:46:00;;;;;;;55.67;2.33;;;;;;;;;;5034184;28;20460;-71
2023/12/22 01:48:27;;;;;;;55.70;2.30;;;;;;;;;;5037394;28;20457;-71
2023/12/22 01:50:56;;;;;;;55.90;2.40;;;;;;;;;;5051551;28;20513;-71
2023/12/22 01:53:24;;;;;;;56.00;2.53;;;;;;;;;;5039780;28;20470;-71
2023/12/22 01:55:52;;;;;;;55.80;2.33;;;;;;;;;;5048104;28;20458;-71
2023/12/22 01:58:20;;;;;;;55.93;2.77;;;;;;;;;;5047026;28;20458;-72
2023/12/22 02:00:48;;;;;;;55.67;2.70;;;;;;;;;;5042172;28;20459;-71
2023/12/22 02:03:16;;;;;;;55.70;2.50;;;;;;;;;;5052564;28;20471;-71
2023/12/22 02:05:43;;;;;;;55.60;2.53;;;;;;;;;;5053762;28;20455;-71
2023/12/22 02:08:10;;;;;;;55.70;2.40;;;;;;;;;;5053626;28;20460;-71
2023/12/22 02:10:38;;;;;;;55.37;2.50;;;;;;;;;;5053574;28;20457;-71
2023/12/22 02:13:05;;;;;;;55.80;2.40;;;;;;;;;;5048808;28;20529;-72
2023/12/22 02:18:40;;;;;;;55.67;2.40;;;;;;;;;;5033016;28;20412;-72
2023/12/22 02:21:07;;;;;;;55.37;2.00;;;;;;;;;;5033393;28;20455;-72
2023/12/22 02:23:36;;;;;;;55.47;1.97;;;;;;;;;;5033067;28;20471;-71
2023/12/22 02:26:07;;;;;;;55.40;2.30;;;;;;;;;;5033489;28;20455;-72
2023/12/22 02:28:36;;;;;;;55.20;2.17;;;;;;;;;;5033408;28;20463;-72
2023/12/22 02:31:05;;;;;;;55.77;1.90;;;;;;;;;;5033300;28;20491;-72
2023/12/22 02:33:33;;;;;;;55.17;1.97;;;;;;;;;;5031724;28;20467;-72
2023/12/22 02:36:03;;;;;;;55.47;2.20;;;;;;;;;;5033403;28;20467;-72
2023/12/22 02:38:31;;;;;;;55.50;2.40;;;;;;;;;;5033394;28;21154;-72
2023/12/22 02:40:59;;;;;;;55.27;2.10;;;;;;;;;;5037268;28;20448;-72
2023/12/22 02:43:26;;;;;;;55.57;2.40;;;;;;;;;;5037850;28;20475;-72
2023/12/22 02:45:53;;;;;;;55.60;2.13;;;;;;;;;;5033586;28;20457;-72
2023/12/22 02:48:20;;;;;;;55.57;2.10;;;;;;;;;;5033665;28;20455;-71
2023/12/22 02:50:48;;;;;;;54.93;1.90;;;;;;;;;;5033173;28;20459;-72
2023/12/22 02:53:14;;;;;;;55.80;2.27;;;;;;;;;;5032686;28;20475;-72
2023/12/22 02:55:41;;;;;;;55.47;2.20;;;;;;;;;;5033334;28;20456;-71
2023/12/22 02:58:09;;;;;;;55.47;2.10;;;;;;;;;;5033766;28;20459;-72
2023/12/22 03:00:36;;;;;;;55.60;2.43;;;;;;;;;;5033084;28;20451;-72
2023/12/22 03:03:03;;;;;;;55.50;2.10;;;;;;;;;;5032752;28;20976;-72
2023/12/22 03:05:30;;;;;;;55.60;2.40;;;;;;;;;;5032759;28;20447;-72
2023/12/22 03:07:58;;;;;;;55.57;2.30;;;;;;;;;;5033520;28;20464;-72
2023/12/22 03:10:25;;;;;;;55.30;2.10;;;;;;;;;;5034164;28;20459;-72
2023/12/22 03:12:52;;;;;;;55.70;2.20;;;;;;;;;;5033464;28;20494;-72
2023/12/22 03:15:21;;;;;;;55.37;1.90;;;;;;;;;;5034187;28;20482;-72
2023/12/22 03:17:48;;;;;;;55.80;2.30;;;;;;;;;;5033948;28;20487;-72
2023/12/22 03:20:15;;;;;;;55.60;2.10;;;;;;;;;;5035026;28;20451;-72
2023/12/22 03:22:42;;;;;;;57.20;2.20;;;;;;;;;;5033374;28;20462;-72
2023/12/22 03:25:09;;;;;;;55.17;2.10;;;;;;;;;;5033700;28;20454;-72
2023/12/22 03:27:36;;;;;;;55.50;2.20;;;;;;;;;;5033427;28;20475;-71
2023/12/22 03:30:04;;;;;;;55.40;1.87;;;;;;;;;;5033089;28;20456;-72
2023/12/22 03:32:33;;;;;;;55.47;2.00;;;;;;;;;;5032486;28;20522;-72
2023/12/22 03:35:00;;;;;;;55.40;1.80;;;;;;;;;;5032669;28;20452;-71
2023/12/22 03:37:27;;;;;;;55.53;2.20;;;;;;;;;;5033097;28;20891;-72
2023/12/22 03:39:54;;;;;;;55.57;2.30;;;;;;;;;;5032990;28;20551;-72
2023/12/22 03:42:21;;;;;;;55.43;2.20;;;;;;;;;;5032712;28;20550;-72
2023/12/22 03:44:48;;;;;;;55.70;2.30;;;;;;;;;;5033053;28;20898;-72
2023/12/22 03:47:15;;;;;;;55.63;2.53;;;;;;;;;;5033414;28;20460;-72
2023/12/22 03:49:44;;;;;;;55.67;2.20;;;;;;;;;;5032668;28;20937;-72
2023/12/22 03:52:11;;;;;;;55.60;1.80;;;;;;;;;;5032622;28;21071;-72
2023/12/22 03:54:38;;;;;;;55.67;2.00;;;;;;;;;;5033008;28;20484;-72
2023/12/22 03:57:05;;;;;;;55.80;2.93;;;;;;;;;;5032331;28;20903;-72
2023/12/22 03:59:32;;;;;;;55.57;2.10;;;;;;;;;;5032889;28;20831;-72
2023/12/22 04:02:01;;;;;;;54.97;2.10;;;;;;;;;;5032118;28;20470;-72
2023/12/22 04:04:28;;;;;;;55.40;2.20;;;;;;;;;;5033351;28;20507;-72
2023/12/22 04:06:56;;;;;;;55.60;2.20;;;;;;;;;;5033169;28;20880;-72
2023/12/22 04:09:23;;;;;;;55.60;2.20;;;;;;;;;;5040089;28;20471;-71
2023/12/22 04:11:51;;;;;;;55.70;2.23;;;;;;;;;;5030857;28;20502;-71
2023/12/22 04:14:18;;;;;;;55.50;2.00;;;;;;;;;;5039560;28;20455;-70
2023/12/22 04:16:45;;;;;;;55.80;2.70;;;;;;;;;;5031171;28;20454;-69
2023/12/22 04:19:12;;;;;;;55.57;2.10;;;;;;;;;;5039278;28;20458;-70
2023/12/22 04:21:39;;;;;;;55.90;2.30;;;;;;;;;;5034402;28;20469;-71
2023/12/22 04:24:08;;;;;;;55.80;2.47;;;;;;;;;;5031540;28;20445;-71
2023/12/22 04:26:35;;;;;;;55.87;2.70;;;;;;;;;;5031169;28;20460;-71
2023/12/22 04:29:03;;;;;;;55.80;2.50;;;;;;;;;;5031004;28;20459;-71
2023/12/22 04:31:30;;;;;;;55.57;2.40;;;;;;;;;;5031162;28;20491;-71
2023/12/22 04:33:57;;;;;;;55.90;2.40;;;;;;;;;;5030953;28;20457;-70
2023/12/22 04:36:24;;;;;;;56.10;3.07;;;;;;;;;;5031359;28;20815;-70
2023/12/22 04:38:51;;;;;;;55.87;2.40;;;;;;;;;;5030908;28;20965;-71
2023/12/22 04:41:19;;;;;;;55.90;2.60;;;;;;;;;;5030858;28;20455;-71
2023/12/22 04:43:47;;;;;;;55.83;2.60;;;;;;;;;;5030758;28;20451;-71
2023/12/22 04:46:14;;;;;;;55.57;2.50;;;;;;;;;;5031345;28;20451;-71
2023/12/22 04:48:41;;;;;;;55.77;2.80;;;;;;;;;;5031025;28;20482;-71
2023/12/22 04:51:08;;;;;;;55.90;2.40;;;;;;;;;;5031152;28;20451;-71
2023/12/22 04:53:35;;;;;;;63.00;2.90;;;;;;;;;;5030790;28;20491;-71
2023/12/22 04:56:02;;;;;;;55.80;2.10;;;;;;;;;;5031384;28;20448;-71
2023/12/22 04:58:31;;;;;;;55.57;2.33;;;;;;;;;;5034575;28;20923;-71
2023/12/22 05:00:59;;;;;;;55.50;2.40;;;;;;;;;;5035097;28;20451;-72
2023/12/22 05:03:26;;;;;;;55.70;2.30;;;;;;;;;;5034715;28;20911;-72
2023/12/22 05:05:53;;;;;;;55.70;2.10;;;;;;;;;;5034962;28;20456;-72
2023/12/22 05:08:20;;;;;;;55.60;2.27;;;;;;;;;;5034717;28;20456;-72
2023/12/22 05:10:47;;;;;;;55.57;2.20;;;;;;;;;;5034578;28;20487;-71
2023/12/22 05:13:14;;;;;;;55.60;2.23;;;;;;;;;;5034362;28;20501;-71
2023/12/22 05:15:43;;;;;;;55.67;2.20;;;;;;;;;;5034647;28;20948;-71
2023/12/22 05:18:10;;;;;;;55.80;2.10;;;;;;;;;;5034867;28;20943;-71
2023/12/22 05:20:37;;;;;;;55.57;2.33;;;;;;;;;;5034686;28;20459;-71
2023/12/22 05:23:04;;;;;;;55.67;2.30;;;;;;;;;;5034264;28;20464;-71
2023/12/22 05:25:32;;;;;;;55.47;2.20;;;;;;;;;;5034297;28;20871;-71
2023/12/22 05:27:59;;;;;;;55.90;2.20;;;;;;;;;;5034458;28;20460;-71
2023/12/22 05:30:26;;;;;;;55.40;2.50;;;;;;;;;;5034530;28;20456;-72
2023/12/22 05:32:55;;;;;;;55.47;2.20;;;;;;;;;;5033948;28;20499;-71
2023/12/22 05:35:22;;;;;;;55.37;2.03;;;;;;;;;;5033898;28;20455;-71
2023/12/22 05:37:49;;;;;;;55.70;2.10;;;;;;;;;;5034159;28;20808;-71
2023/12/22 05:40:16;;;;;;;55.13;2.10;;;;;;;;;;5034417;28;20455;-71
2023/12/22 05:42:43;;;;;;;55.13;1.93;;;;;;;;;;5033902;28;20988;-71
2023/12/22 05:45:11;;;;;;;55.57;2.20;;;;;;;;;;5034269;28;20456;-71
2023/12/22 05:47:38;;;;;;;55.80;2.20;;;;;;;;;;5034122;28;20454;-72
2023/12/22 05:50:07;;;;;;;55.00;1.90;;;;;;;;;;5034142;28;20448;-71
2023/12/22 05:52:34;;;;;;;56.40;2.20;;;;;;;;;;5033532;28;21025;-71
2023/12/22 05:55:01;;;;;;;56.00;2.40;;;;;;;;;;5034020;28;20461;-71
2023/12/22 05:57:29;;;;;;;55.60;2.60;;;;;;;;;;5034149;28;20454;-71
2023/12/22 05:59:56;;;;;;;55.50;2.20;;;;;;;;;;5034103;28;20454;-71
2023/12/22 06:02:23;;;;;;;55.50;1.97;;;;;;;;;;5033781;28;20467;-71
2023/12/22 06:04:50;;;;;;;55.80;2.30;;;;;;;;;;5033733;28;20456;-71
2023/12/22 06:07:19;;;;;;;55.03;2.10;;;;;;;;;;5034192;28;20455;-72
2023/12/22 06:09:46;;;;;;;55.33;2.20;;;;;;;;;;5036385;28;20473;-72
2023/12/22 06:12:13;;;;;;;55.40;2.10;;;;;;;;;;5050846;28;20492;-71
2023/12/22 06:14:40;;;;;;;55.53;2.47;;;;;;;;;;5037782;28;20544;-71
2023/12/22 06:17:07;;;;;;;55.50;2.10;;;;;;;;;;5034111;28;20456;-71
2023/12/22 06:19:36;;;;;;;55.57;2.20;;;;;;;;;;5045361;28;20458;-72
2023/12/22 06:22:04;;;;;;;55.80;2.80;;;;;;;;;;5033489;28;20473;-72
2023/12/22 06:24:32;;;;;;;55.53;2.47;;;;;;;;;;5034205;28;20771;-71
2023/12/22 06:26:59;;;;;;;55.90;2.40;;;;;;;;;;5034014;28;20834;-71
2023/12/22 06:29:26;;;;;;;55.60;2.20;;;;;;;;;;5033794;28;20463;-72
2023/12/22 06:31:53;;;;;;;55.70;2.17;;;;;;;;;;5033293;28;21016;-71
2023/12/22 06:34:20;;;;;;;55.40;2.40;;;;;;;;;;5034185;28;20443;-71
2023/12/22 06:36:48;;;;;;;55.57;2.60;;;;;;;;;;5034301;28;20535;-71
2023/12/22 06:39:15;;;;;;;55.80;2.63;;;;;;;;;;5042370;28;20478;-72
2023/12/22 06:41:43;;;;;;;55.80;2.40;;;;;;;;;;5034658;28;20470;-71
2023/12/22 06:44:10;;;;;;;55.47;2.10;;;;;;;;;;5034552;28;20954;-72
2023/12/22 06:46:37;;;;;;;56.00;2.60;;;;;;;;;;5034633;28;20551;-72
2023/12/22 06:49:05;;;;;;;55.60;2.30;;;;;;;;;;5034376;28;20458;-71
2023/12/22 06:51:34;;;;;;;55.70;2.40;;;;;;;;;;5033750;28;20955;-72
2023/12/22 06:54:01;;;;;;;55.53;2.03;;;;;;;;;;5034038;28;20949;-71
2023/12/22 06:56:29;;;;;;;55.70;2.03;;;;;;;;;;5033948;28;20821;-71
2023/12/22 06:58:58;;;;;;;55.50;2.03;;;;;;;;;;5033602;28;20446;-72
2023/12/22 07:01:26;;;;;;;55.43;2.20;;;;;;;;;;5033395;28;20448;-72
2023/12/22 07:03:53;;;;;;;55.47;2.00;;;;;;;;;;5032852;28;20452;-72
2023/12/22 07:06:21;;;;;;;55.30;2.00;;;;;;;;;;5033007;28;20452;-71
2023/12/22 07:08:58;;;;;;;55.60;2.00;;;;;;;;;;5033275;28;20456;-72
2023/12/22 07:11:25;;;;;;;55.47;2.30;;;;;;;;;;5032620;28;20456;-72
2023/12/22 07:13:52;;;;;;;55.30;2.17;;;;;;;;;;5032392;28;20502;-72
2023/12/22 07:16:20;;;;;;;55.40;1.93;;;;;;;;;;5033101;28;20462;-72
2023/12/22 07:18:47;;;;;;;55.17;2.00;;;;;;;;;;5032708;28;20930;-72
2023/12/22 07:21:18;;;;;;;55.63;2.00;;;;;;;;;;5044277;28;20981;-72
2023/12/22 07:23:45;;;;;;;55.37;2.10;;;;;;;;;;5036711;28;20931;-72
2023/12/22 07:26:12;;;;;;;55.50;2.10;;;;;;;;;;5052499;28;20458;-72
2023/12/22 07:28:39;;;;;;;55.03;2.10;;;;;;;;;;5052475;28;20480;-72
2023/12/22 07:31:06;;;;;;;55.50;2.13;;;;;;;;;;5052422;28;20454;-73
2023/12/22 07:33:35;;;;;;;55.60;2.00;;;;;;;;;;5052217;28;20855;-72
2023/12/22 07:36:02;;;;;;;55.57;2.30;;;;;;;;;;5052205;28;20461;-72
2023/12/22 07:38:29;;;;;;;55.57;2.20;;;;;;;;;;5052069;28;20456;-72
2023/12/22 07:40:56;;;;;;;55.27;2.00;;;;;;;;;;5052281;28;20450;-72
2023/12/22 07:43:24;;;;;;;55.43;2.30;;;;;;;;;;5052302;28;20474;-73
2023/12/22 07:45:51;;;;;;;55.60;2.37;;;;;;;;;;5053082;28;20456;-73
2023/12/22 07:48:18;;;;;;;55.37;1.87;;;;;;;;;;5053228;28;20451;-72
2023/12/22 07:50:47;;;;;;;55.60;1.93;;;;;;;;;;5052371;28;20823;-72
2023/12/22 07:53:14;;;;;;;55.33;2.20;;;;;;;;;;5032003;28;20987;-72
2023/12/22 07:55:41;;;;;;;55.53;2.00;;;;;;;;;;5032685;28;20456;-72
2023/12/22 07:58:08;;;;;;;55.47;2.00;;;;;;;;;;5032575;28;20460;-72
2023/12/22 08:00:35;;;;;;;55.43;2.07;;;;;;;;;;5032323;28;20452;-72
2023/12/22 08:03:02;;;;;;;55.37;2.07;;;;;;;;;;5031989;28;20491;-72
2023/12/22 08:05:30;;;;;;;55.87;2.30;;;;;;;;;;5032141;28;20440;-73
2023/12/22 08:07:58;;;;;;;55.40;2.10;;;;;;;;;;5031816;28;20447;-72
2023/12/22 08:10:27;;;;;;;55.70;2.83;;;;;;;;;;5032318;28;20484;-72
2023/12/22 08:12:54;;;;;;;55.53;2.30;;;;;;;;;;5040139;28;20565;-71
2023/12/22 08:15:21;;;;;;;55.40;2.30;;;;;;;;;;5031528;28;20462;-71
2023/12/22 08:17:48;;;;;;;55.47;2.40;;;;;;;;;;5031529;28;20483;-71
2023/12/22 08:20:18;;;;;;;55.47;2.10;;;;;;;;;;5043134;28;20452;-71
2023/12/22 08:22:46;;;;;;;55.70;2.30;;;;;;;;;;5051455;28;20554;-71
2023/12/22 08:25:14;;;;;;;55.67;2.40;;;;;;;;;;5051094;28;20439;-71
2023/12/22 08:27:41;;;;;;;56.17;3.20;;;;;;;;;;5051228;28;20454;-71
2023/12/22 08:30:09;;;;;;;56.30;3.70;;;;;;;;;;5051152;28;20447;-71
2023/12/22 08:32:36;;;;;;;55.70;2.30;;;;;;;;;;5050040;28;20463;-71
2023/12/22 08:35:04;;;;;;;55.57;2.27;;;;;;;;;;5051115;28;20454;-71
2023/12/22 08:37:31;;;;;;;55.47;2.30;;;;;;;;;;5050988;28;20455;-71
2023/12/22 08:39:58;;;;;;;55.77;2.40;;;;;;;;;;5051001;28;20833;-71
2023/12/22 08:42:26;;;;;;;55.53;2.30;;;;;;;;;;5050734;28;20467;-71
2023/12/22 08:44:54;;;;;;;56.90;4.23;;;;;;;;;;5050896;28;20453;-72
2023/12/22 08:47:21;;;;;;;55.97;2.70;;;;;;;;;;5050882;28;20446;-71
2023/12/22 08:49:48;;;;;;;55.80;2.10;;;;;;;;;;5050733;28;20452;-72
2023/12/22 08:52:15;;;;;;;55.90;2.50;;;;;;;;;;5050406;28;20985;-71
2023/12/22 08:54:42;;;;;;;55.87;2.70;;;;;;;;;;5051156;28;20846;-72
2023/12/22 08:57:10;;;;;;;55.87;2.60;;;;;;;;;;5050796;28;20843;-71
2023/12/22 08:59:39;;;;;;;55.80;2.63;;;;;;;;;;5050857;28;20457;-72
2023/12/22 09:02:06;;;;;;;55.73;2.20;;;;;;;;;;5050289;28;20467;-72
2023/12/22 09:04:33;;;;;;;55.73;2.40;;;;;;;;;;5051034;28;20493;-72
2023/12/22 09:07:01;;;;;;;55.87;2.43;;;;;;;;;;5050787;28;20461;-72
2023/12/22 09:09:28;;;;;;;55.63;2.20;;;;;;;;;;5050879;28;20482;-72
2023/12/22 09:11:55;;;;;;;55.60;2.50;;;;;;;;;;5050314;28;20471;-72
2023/12/22 09:14:22;;;;;;;56.80;4.17;;;;;;;;;;5050489;28;21009;-72
2023/12/22 09:16:50;;;;;;;55.67;2.30;;;;;;;;;;5051072;28;20452;-72
2023/12/22 09:19:17;;;;;;;55.90;2.40;;;;;;;;;;5030866;28;20451;-72
2023/12/22 09:21:44;;;;;;;55.60;2.17;;;;;;;;;;5030538;28;20487;-72
2023/12/22 09:24:12;;;;;;;55.60;2.50;;;;;;;;;;5030702;28;20442;-71
2023/12/22 09:26:41;;;;;;;55.57;2.17;;;;;;;;;;5030697;28;20526;-71
2023/12/22 09:29:08;;;;;;;55.90;2.87;;;;;;;;;;5030529;28;20461;-72
2023/12/22 09:31:35;;;;;;;55.60;2.40;;;;;;;;;;5030679;28;20452;-72
2023/12/22 09:34:03;;;;;;;55.70;2.20;;;;;;;;;;5030401;28;20499;-72
2023/12/22 09:36:30;;;;;;;55.47;2.10;;;;;;;;;;5030545;28;20537;-72
2023/12/22 09:38:57;;;;;;;55.60;2.37;;;;;;;;;;5031212;28;20952;-72
2023/12/22 09:41:24;;;;;;;55.43;2.40;;;;;;;;;;5037892;28;20827;-72
2023/12/22 09:43:52;;;;;;;55.90;2.60;;;;;;;;;;5032528;28;20471;-72
2023/12/22 09:46:19;;;;;;;55.70;2.10;;;;;;;;;;5042755;28;20531;-73
2023/12/22 09:48:46;;;;;;;55.47;2.10;;;;;;;;;;5034164;28;20961;-72
2023/12/22 09:51:15;;;;;;;55.93;2.70;;;;;;;;;;5034203;28;20450;-73
2023/12/22 09:53:43;;;;;;;55.40;2.20;;;;;;;;;;5033812;28;20491;-73
2023/12/22 09:56:10;;;;;;;55.50;2.40;;;;;;;;;;5033946;28;21004;-72
2023/12/22 09:58:38;;;;;;;55.53;2.63;;;;;;;;;;5034311;28;20443;-71
2023/12/22 10:01:06;;;;;;;55.37;1.93;;;;;;;;;;5035659;28;20875;-72
2023/12/22 10:03:34;;;;;;;55.47;1.87;;;;;;;;;;5040689;28;20499;-72
2023/12/22 10:06:01;;;;;;;55.50;2.20;;;;;;;;;;5034025;28;20456;-72
2023/12/22 10:08:30;;;;;;;55.43;2.20;;;;;;;;;;5034167;28;20511;-71
2023/12/22 10:10:58;;;;;;;55.50;2.13;;;;;;;;;;5033880;28;20454;-73
2023/12/22 10:13:27;;;;;;;55.53;2.17;;;;;;;;;;5033642;28;20489;-73
2023/12/22 10:15:55;;;;;;;55.47;2.20;;;;;;;;;;5034317;28;20458;-72
2023/12/22 10:18:23;;;;;;;55.53;2.37;;;;;;;;;;5045831;28;20498;-72
2023/12/22 10:20:50;;;;;;;58.17;4.47;;;;;;;;;;5053783;28;20451;-72
2023/12/22 10:23:17;;;;;;;55.60;2.50;;;;;;;;;;5053276;28;20462;-72
2023/12/22 10:25:45;;;;;;;55.57;2.10;;;;;;;;;;5053775;28;20441;-72
2023/12/22 10:28:13;;;;;;;55.37;2.10;;;;;;;;;;5053339;28;20996;-72
2023/12/22 10:30:41;;;;;;;55.53;1.90;;;;;;;;;;5053631;28;20461;-72
2023/12/22 10:33:08;;;;;;;55.47;2.27;;;;;;;;;;5052953;28;20472;-72
2023/12/22 10:35:36;;;;;;;55.43;1.90;;;;;;;;;;5053429;28;20516;-73
2023/12/22 10:38:03;;;;;;;55.50;2.20;;;;;;;;;;5044069;28;20453;-73
2023/12/22 10:40:30;;;;;;;55.70;2.20;;;;;;;;;;5033799;28;20452;-73
2023/12/22 10:43:00;;;;;;;55.50;2.00;;;;;;;;;;5033255;28;20476;-72
2023/12/22 10:45:29;;;;;;;55.67;2.33;;;;;;;;;;5034149;28;20861;-73
2023/12/22 10:47:56;;;;;;;56.47;2.20;;;;;;;;;;5034132;28;20557;-73
2023/12/22 10:50:25;;;;;;;55.60;2.50;;;;;;;;;;5046174;28;20450;-73
2023/12/22 10:52:53;;;;;;;55.17;1.90;;;;;;;;;;5053325;28;20477;-73
2023/12/22 10:55:20;;;;;;;55.90;2.40;;;;;;;;;;5052813;28;20494;-73
2023/12/22 10:57:48;;;;;;;55.40;1.87;;;;;;;;;;5053627;28;20449;-73
2023/12/22 11:00:17;;;;;;;55.90;2.13;;;;;;;;;;5053640;28;20447;-73
2023/12/22 11:02:44;;;;;;;55.57;2.37;;;;;;;;;;5047966;28;20482;-73
2023/12/22 11:05:13;;;;;;;55.70;2.00;;;;;;;;;;5048330;28;20447;-72
2023/12/22 11:07:42;;;;;;;55.50;2.00;;;;;;;;;;5037953;28;20451;-72
2023/12/22 11:10:09;;;;;;;55.27;1.97;;;;;;;;;;5031965;28;20452;-73
2023/12/22 11:12:37;;;;;;;55.57;2.23;;;;;;;;;;5031535;28;20840;-73
2023/12/22 11:15:06;;;;;;;55.50;2.10;;;;;;;;;;5032420;28;20499;-73
2023/12/22 11:17:35;;;;;;;55.57;2.10;;;;;;;;;;5032259;28;20457;-73
2023/12/22 11:20:03;;;;;;;55.50;2.30;;;;;;;;;;5032718;28;20463;-73
2023/12/22 11:22:32;;;;;;;55.57;2.20;;;;;;;;;;5032671;28;20476;-72
2023/12/22 11:25:00;;;;;;;55.43;1.87;;;;;;;;;;5032948;28;20451;-73
2023/12/22 11:27:28;;;;;;;55.37;2.10;;;;;;;;;;5032589;28;20555;-73
2023/12/22 11:29:55;;;;;;;55.70;2.37;;;;;;;;;;5032439;28;20448;-72
2023/12/22 11:32:22;;;;;;;55.43;2.30;;;;;;;;;;5031843;28;20470;-72
2023/12/22 11:34:51;;;;;;;55.77;2.00;;;;;;;;;;5032133;28;20868;-73
2023/12/22 11:37:18;;;;;;;55.37;1.97;;;;;;;;;;5032170;28;20553;-72
2023/12/22 11:39:47;;;;;;;56.33;2.50;;;;;;;;;;5032160;28;20451;-73
2023/12/22 11:42:16;;;;;;;55.50;2.10;;;;;;;;;;5031568;28;20476;-72
2023/12/22 11:44:43;;;;;;;55.63;2.47;;;;;;;;;;5031745;28;20453;-72
2023/12/22 11:47:13;;;;;;;55.63;2.40;;;;;;;;;;5032007;28;20447;-73
2023/12/22 11:49:40;;;;;;;55.60;2.43;;;;;;;;;;5032032;28;20462;-73
2023/12/22 11:52:15;;;;;;;55.40;1.97;;;;;;;;;;5031471;28;20544;-73
2023/12/22 11:54:45;;;;;;;55.67;2.10;;;;;;;;;;5031755;28;21010;-73
2023/12/22 11:57:27;;;;;;;55.30;1.90;;;;;;;;;;5031863;28;20452;-73
2023/12/22 11:59:54;;;;;;;55.37;2.27;;;;;;;;;;5039155;28;20442;-72
2023/12/22 12:02:22;;;;;;;55.47;2.47;;;;;;;;;;5031890;28;20471;-72
2023/12/22 12:04:49;;;;;;;55.43;2.40;;;;;;;;;;5031841;28;20437;-71
2023/12/22 12:07:35;;;;;;;55.40;2.30;;;;;;;;;;5031443;28;20448;-72
2023/12/22 12:10:03;;;;;;;55.53;2.07;;;;;;;;;;5031729;28;20443;-72
2023/12/22 12:12:34;;;;;;;55.47;2.30;;;;;;;;;;5031456;28;20469;-72
2023/12/22 12:15:04;;;;;;;55.47;2.43;;;;;;;;;;5031470;28;20536;-71
2023/12/22 12:17:31;;;;;;;55.47;2.33;;;;;;;;;;5043768;28;20450;-72
2023/12/22 12:19:59;;;;;;;55.90;2.40;;;;;;;;;;5051151;28;20455;-73
2023/12/22 12:22:27;;;;;;;55.70;2.30;;;;;;;;;;5050858;28;20467;-72
2023/12/22 12:24:55;;;;;;;55.47;2.40;;;;;;;;;;5051490;28;20825;-72
2023/12/22 12:27:23;;;;;;;55.70;2.50;;;;;;;;;;5051175;28;20835;-73
2023/12/22 12:29:51;;;;;;;55.37;2.20;;;;;;;;;;5051222;28;20976;-72
2023/12/22 12:32:18;;;;;;;55.27;2.00;;;;;;;;;;5050690;28;20480;-73
2023/12/22 12:34:45;;;;;;;55.60;2.10;;;;;;;;;;5051509;28;20499;-72
2023/12/22 12:37:12;;;;;;;55.47;2.03;;;;;;;;;;5036795;28;20479;-73
2023/12/22 12:39:40;;;;;;;55.67;2.40;;;;;;;;;;5044400;28;20451;-73
2023/12/22 12:42:08;;;;;;;55.63;2.60;;;;;;;;;;5045592;28;20498;-73
2023/12/22 12:44:37;;;;;;;55.70;2.10;;;;;;;;;;5030799;28;20962;-72
2023/12/22 12:47:12;;;;;;;55.60;2.10;;;;;;;;;;5030430;28;20457;-72
2023/12/22 12:49:39;;;;;;;55.53;2.53;;;;;;;;;;5039248;28;20456;-73
2023/12/22 12:52:07;;;;;;;55.47;2.33;;;;;;;;;;5034823;28;20474;-72
2023/12/22 12:54:34;;;;;;;55.43;2.20;;;;;;;;;;5045766;28;20486;-73
2023/12/22 12:57:01;;;;;;;55.60;2.67;;;;;;;;;;5030182;28;20447;-73
2023/12/22 12:59:28;;;;;;;55.60;2.20;;;;;;;;;;5040803;28;20448;-73
2023/12/22 13:01:57;;;;;;;55.50;2.10;;;;;;;;;;5031015;28;20835;-73
2023/12/22 13:04:24;;;;;;;55.43;2.10;;;;;;;;;;5040097;28;20480;-73
2023/12/22 13:06:52;;;;;;;55.17;2.20;;;;;;;;;;5030491;28;20816;-73
2023/12/22 13:09:20;;;;;;;55.50;2.40;;;;;;;;;;5041609;28;20460;-73
2023/12/22 13:11:47;;;;;;;55.50;2.20;;;;;;;;;;5035380;28;20466;-73
2023/12/22 13:14:24;;;;;;;55.57;2.00;;;;;;;;;;5030822;28;20513;-73
2023/12/22 13:16:53;;;;;;;55.50;2.00;;;;;;;;;;5031026;28;20504;-73
2023/12/22 13:19:22;;;;;;;55.70;2.30;;;;;;;;;;5041706;28;20569;-73
2023/12/22 13:21:50;;;;;;;55.47;2.03;;;;;;;;;;5032995;28;20491;-73
2023/12/22 13:24:17;;;;;;;55.43;2.00;;;;;;;;;;5032565;28;20446;-73
2023/12/22 13:26:45;;;;;;;55.63;2.47;;;;;;;;;;5033376;28;20450;-73
2023/12/22 13:29:13;;;;;;;55.47;2.20;;;;;;;;;;5032795;28;20467;-73
2023/12/22 13:31:42;;;;;;;55.17;1.80;;;;;;;;;;5032726;28;20476;-73
2023/12/22 13:34:10;;;;;;;55.50;1.83;;;;;;;;;;5032670;28;20459;-73
2023/12/22 13:36:38;;;;;;;55.50;2.03;;;;;;;;;;5033924;28;20919;-73
2023/12/22 13:39:06;;;;;;;55.40;1.90;;;;;;;;;;5034624;28;20463;-73
2023/12/22 13:41:34;;;;;;;55.43;1.97;;;;;;;;;;5034712;28;20493;-73
2023/12/22 13:44:03;;;;;;;55.67;1.93;;;;;;;;;;5034499;28;20578;-74
2023/12/22 13:46:31;;;;;;;55.60;2.03;;;;;;;;;;5046365;28;20456;-72
2023/12/22 13:48:58;;;;;;;55.37;1.97;;;;;;;;;;5054786;28;20549;-73
2023/12/22 13:51:25;;;;;;;55.27;2.00;;;;;;;;;;5053968;28;20976;-73
2023/12/22 13:53:54;;;;;;;55.70;2.30;;;;;;;;;;5054308;28;20815;-72
2023/12/22 13:56:21;;;;;;;55.77;2.00;;;;;;;;;;5054131;28;20501;-73
2023/12/22 13:58:49;;;;;;;55.13;1.80;;;;;;;;;;5054363;28;20457;-72
2023/12/22 14:01:16;;;;;;;55.27;2.00;;;;;;;;;;5053684;28;20529;-73
2023/12/22 14:03:44;;;;;;;55.60;2.03;;;;;;;;;;5053631;28;20474;-71
2023/12/22 14:06:11;;;;;;;55.47;1.90;;;;;;;;;;5053693;28;20825;-72
2023/12/22 14:08:40;;;;;;;55.47;2.10;;;;;;;;;;5053950;28;20530;-72
2023/12/22 14:11:09;;;;;;;55.47;2.00;;;;;;;;;;5053944;28;20446;-72
2023/12/22 14:13:38;;;;;;;55.53;2.10;;;;;;;;;;5053443;28;20473;-73
2023/12/22 14:16:06;;;;;;;55.53;1.80;;;;;;;;;;5053773;28;20492;-73
2023/12/22 14:18:33;;;;;;;55.70;1.80;;;;;;;;;;5053705;28;20443;-73
2023/12/22 14:21:00;;;;;;;54.57;2.00;;;;;;;;;;5054048;28;20456;-72
2023/12/22 14:23:27;;;;;;;55.37;2.00;;;;;;;;;;5053487;28;20465;-72
2023/12/22 14:25:55;;;;;;;55.37;2.00;;;;;;;;;;5053799;28;20445;-73
2023/12/22 14:28:23;;;;;;;55.00;1.93;;;;;;;;;;5053049;28;20450;-72
2023/12/22 14:30:50;;;;;;;55.27;1.87;;;;;;;;;;5052171;28;20477;-73
2023/12/22 14:33:17;;;;;;;55.57;2.00;;;;;;;;;;5053131;28;20470;-72
2023/12/22 14:35:45;;;;;;;55.40;1.90;;;;;;;;;;5053702;28;20881;-73